Time;durP1;ratioP1;P1;durP2;ratioP2;P2;SDS_P1;SDS_P2;PMS_P1;PMS_P2;Temp;Humidity;BMP_temperature;BMP_pressure;BME280_temperature;BME280_humidity;BME280_pressure;Samples;Min_cycle;Max_cycle;Signal;HPM_P1;HPM_P2
2022/02/01 00:01:46;;;;;;;18.35;2.55;;;5.70;99.90;;;;;;5093035;28;20047;-75
2022/02/01 00:04:17;;;;;;;16.77;2.70;;;5.70;99.90;;;;;;5093052;28;20434;-75
2022/02/01 00:09:40;;;;;;;15.95;2.60;;;5.70;99.90;;;;;;5072541;28;20036;-74
2022/02/01 00:12:16;;;;;;;13.70;1.92;;;5.70;99.90;;;;;;5078994;28;20353;-75
2022/02/01 00:20:39;;;;;;;12.27;2.60;;;5.50;99.90;;;;;;5092170;28;20123;-75
2022/02/01 00:33:50;;;;;;;23.15;2.90;;;5.40;99.90;;;;;;5095383;28;20510;-75
2022/02/01 00:36:29;;;;;;;14.27;3.10;;;5.40;99.90;;;;;;5085417;28;20026;-75
2022/02/01 00:39:11;;;;;;;18.73;3.55;;;5.30;99.90;;;;;;5096604;28;20036;-75
2022/02/01 00:41:42;;;;;;;19.43;2.73;;;5.30;99.90;;;;;;5096441;28;20077;-76
2022/02/01 00:44:08;;;;;;;14.32;3.10;;;5.30;99.90;;;;;;5096310;28;20630;-74
2022/02/01 00:46:34;;;;;;;21.70;3.10;;;5.30;99.90;;;;;;5096084;28;20031;-75
2022/02/01 00:49:00;;;;;;;17.20;3.05;;;5.20;99.90;;;;;;5082375;28;20033;-74
2022/02/01 00:51:26;;;;;;;18.23;3.22;;;5.20;99.90;;;;;;5075372;28;20020;-74
2022/02/01 00:53:52;;;;;;;17.30;2.95;;;5.20;99.90;;;;;;5075860;28;20029;-75
2022/02/01 00:56:18;;;;;;;24.20;3.85;;;5.10;99.90;;;;;;5075757;28;20016;-75
2022/02/01 00:58:45;;;;;;;16.70;4.00;;;5.20;99.90;;;;;;5074324;28;20404;-75
2022/02/01 01:01:12;;;;;;;27.67;3.60;;;5.20;99.90;;;;;;5075672;28;20115;-75
2022/02/01 01:03:38;;;;;;;29.58;4.03;;;5.10;99.90;;;;;;5075567;28;20031;-75
2022/02/01 01:06:04;;;;;;;32.03;4.07;;;5.20;99.90;;;;;;5083726;28;20229;-75
2022/02/01 01:08:30;;;;;;;26.98;4.25;;;5.20;99.90;;;;;;5076176;28;20525;-75
2022/02/01 01:10:56;;;;;;;13.70;3.13;;;5.10;99.90;;;;;;5096254;28;20027;-75
2022/02/01 01:46:05;;;;;;;15.45;3.60;;;5.30;99.90;;;;;;5076450;28;20059;-74
2022/02/01 01:54:02;;;;;;;20.13;3.03;;;5.30;99.90;;;;;;5095321;28;20043;-75
2022/02/01 01:56:33;;;;;;;20.83;2.92;;;5.30;99.90;;;;;;5095036;28;20116;-76
2022/02/01 01:59:03;;;;;;;20.60;3.72;;;5.20;99.90;;;;;;5095316;28;20024;-76
2022/02/01 02:01:29;;;;;;;17.90;2.80;;;5.30;99.90;;;;;;5094789;28;20108;-76
2022/02/01 02:03:55;;;;;;;24.60;4.07;;;5.40;99.90;;;;;;5089389;28;20050;-75
2022/02/01 02:06:21;;;;;;;30.20;4.05;;;5.40;99.90;;;;;;5074879;28;20028;-76
2022/02/01 02:08:51;;;;;;;18.92;3.50;;;5.40;99.90;;;;;;5074476;28;20488;-79
2022/02/01 02:14:18;;;;;;;15.48;3.50;;;5.50;99.90;;;;;;5074965;28;20029;-79
2022/02/01 02:16:47;;;;;;;25.63;3.78;;;5.50;99.90;;;;;;5074675;28;20073;-76
2022/02/01 02:19:13;;;;;;;17.35;2.63;;;5.50;99.90;;;;;;5080007;28;20036;-77
2022/02/01 02:21:40;;;;;;;21.23;3.38;;;5.50;99.90;;;;;;5094808;28;20061;-76
2022/02/01 02:24:07;;;;;;;15.65;3.00;;;5.40;99.90;;;;;;5094494;28;20380;-76
2022/02/01 02:26:33;;;;;;;15.32;2.85;;;5.40;99.90;;;;;;5094987;28;20024;-76
2022/02/01 02:29:00;;;;;;;25.67;3.30;;;5.30;99.90;;;;;;5094594;28;20031;-78
2022/02/01 02:31:26;;;;;;;16.70;2.88;;;5.30;99.90;;;;;;5094667;28;20020;-75
2022/02/01 02:34:08;;;;;;;16.75;2.75;;;5.40;99.90;;;;;;5076664;28;20388;-77
2022/02/01 02:36:39;;;;;;;22.98;3.80;;;5.40;99.90;;;;;;5090029;28;20020;-76
2022/02/01 02:39:12;;;;;;;24.88;3.85;;;5.40;99.90;;;;;;5092763;28;20059;-76
2022/02/01 02:41:49;;;;;;;16.63;3.53;;;5.50;99.90;;;;;;5093922;28;20472;-75
2022/02/01 02:47:00;;;;;;;21.73;2.80;;;5.60;99.90;;;;;;5094323;28;20040;-77
2022/02/01 02:49:26;;;;;;;14.35;2.58;;;5.50;99.90;;;;;;5094062;28;20032;-77
2022/02/01 02:51:52;;;;;;;13.70;2.55;;;5.50;99.90;;;;;;5094249;28;20032;-76
2022/02/01 02:54:23;;;;;;;13.45;2.80;;;5.50;99.90;;;;;;5093753;28;20016;-77
2022/02/01 02:56:58;;;;;;;10.75;2.85;;;5.50;99.90;;;;;;5094518;28;20028;-76
2022/02/01 02:59:25;;;;;;;12.80;2.63;;;5.50;99.90;;;;;;5093799;28;20032;-76
2022/02/01 03:01:52;;;;;;;11.52;2.10;;;5.50;99.90;;;;;;5085910;28;20377;-76
2022/02/01 03:04:20;;;;;;;17.50;2.50;;;5.60;99.90;;;;;;5094169;28;20460;-77
2022/02/01 03:06:46;;;;;;;15.82;2.85;;;5.60;99.90;;;;;;5091266;28;20032;-76
2022/02/01 03:09:14;;;;;;;17.67;2.55;;;5.60;99.90;;;;;;5072831;28;20021;-77
2022/02/01 03:11:40;;;;;;;13.82;2.17;;;5.60;99.90;;;;;;5073597;28;20024;-76
2022/02/01 03:14:20;;;;;;;15.50;3.15;;;5.60;99.90;;;;;;5073693;28;20451;-77
2022/02/01 03:21:56;;;;;;;16.20;2.58;;;5.50;99.90;;;;;;5073483;28;20094;-76
2022/02/01 03:24:22;;;;;;;18.90;2.92;;;5.50;99.90;;;;;;5073461;28;20024;-76
2022/02/01 03:26:48;;;;;;;14.95;3.22;;;5.50;99.90;;;;;;5073678;28;20020;-74
2022/02/01 03:29:14;;;;;;;13.57;2.63;;;5.50;99.90;;;;;;5073077;28;20526;-75
2022/02/01 03:31:39;;;;;;;12.05;2.53;;;5.40;99.90;;;;;;5072952;28;20039;-75
2022/02/01 03:34:05;;;;;;;21.05;3.30;;;5.40;99.90;;;;;;5091368;28;20024;-75
2022/02/01 03:36:31;;;;;;;23.38;3.65;;;5.50;99.90;;;;;;5093025;28;20142;-75
2022/02/01 03:38:58;;;;;;;18.40;3.40;;;5.40;99.90;;;;;;5088615;28;20041;-75
2022/02/01 03:41:24;;;;;;;19.48;3.30;;;5.50;99.90;;;;;;5072479;28;20028;-75
2022/02/01 03:43:50;;;;;;;14.40;3.67;;;5.60;99.90;;;;;;5075091;28;20481;-76
2022/02/01 03:46:16;;;;;;;24.75;4.45;;;5.60;99.90;;;;;;5073128;28;20047;-75
2022/02/01 03:48:42;;;;;;;17.83;3.55;;;5.60;99.90;;;;;;5071961;28;20138;-76
2022/02/01 03:51:08;;;;;;;15.60;2.60;;;5.60;99.90;;;;;;5072878;28;20063;-76
2022/02/01 03:53:35;;;;;;;19.30;2.92;;;5.50;99.90;;;;;;5073450;28;20337;-77
2022/02/01 03:56:01;;;;;;;13.73;3.20;;;5.60;99.90;;;;;;5072972;28;20468;-75
2022/02/01 03:58:27;;;;;;;12.13;3.03;;;5.60;99.90;;;;;;5086708;28;20074;-75
2022/02/01 04:00:53;;;;;;;15.13;2.92;;;5.60;99.90;;;;;;5093009;28;20032;-75
2022/02/01 04:03:18;;;;;;;24.63;3.53;;;5.70;99.90;;;;;;5091545;28;20495;-75
2022/02/01 04:05:44;;;;;;;18.88;3.03;;;5.60;99.90;;;;;;5075780;28;20107;-75
2022/02/01 04:08:12;;;;;;;19.95;3.33;;;5.60;99.90;;;;;;5072325;28;20055;-76
2022/02/01 04:10:37;;;;;;;15.10;2.70;;;5.60;99.90;;;;;;5071837;28;20085;-76
2022/02/01 04:13:04;;;;;;;26.40;3.25;;;5.60;99.90;;;;;;5071805;28;20033;-76
2022/02/01 04:15:30;;;;;;;13.95;2.70;;;5.60;99.90;;;;;;5071854;28;20028;-76
2022/02/01 04:17:56;;;;;;;15.98;2.92;;;5.60;99.90;;;;;;5072166;28;20021;-76
2022/02/01 04:20:22;;;;;;;18.70;3.63;;;5.70;99.90;;;;;;5072555;28;20029;-76
2022/02/01 04:22:48;;;;;;;18.67;3.15;;;5.60;99.90;;;;;;5072786;28;20024;-75
2022/02/01 04:25:13;;;;;;;14.32;3.58;;;5.60;99.90;;;;;;5074226;28;20021;-76
2022/02/01 04:27:39;;;;;;;18.42;3.03;;;5.70;99.90;;;;;;5074944;28;20024;-77
2022/02/01 04:30:09;;;;;;;15.85;3.08;;;5.60;99.90;;;;;;5093028;28;20016;-77
2022/02/01 04:32:35;;;;;;;22.45;4.35;;;5.50;99.90;;;;;;5091308;28;20028;-77
2022/02/01 04:35:02;;;;;;;21.30;3.78;;;5.50;99.90;;;;;;5092043;28;20028;-76
2022/02/01 04:37:29;;;;;;;18.60;3.40;;;5.40;99.90;;;;;;5085252;28;20035;-77
2022/02/01 04:39:56;;;;;;;21.65;3.42;;;5.50;99.90;;;;;;5090065;28;20036;-76
2022/02/01 04:42:24;;;;;;;14.85;3.47;;;5.40;99.90;;;;;;5091860;28;20472;-77
2022/02/01 04:44:49;;;;;;;17.02;3.55;;;5.40;99.90;;;;;;5092440;28;20032;-77
2022/02/01 04:47:15;;;;;;;21.42;3.88;;;5.50;99.90;;;;;;5091019;28;20349;-76
2022/02/01 04:49:41;;;;;;;22.38;3.67;;;5.50;99.90;;;;;;5092547;28;20024;-77
2022/02/01 04:52:07;;;;;;;16.92;3.40;;;5.60;99.90;;;;;;5091826;28;20043;-77
2022/02/01 04:54:33;;;;;;;20.00;3.25;;;5.50;99.90;;;;;;5092862;28;20527;-77
2022/02/01 04:56:58;;;;;;;21.08;3.60;;;5.50;99.90;;;;;;5091962;28;20039;-76
2022/02/01 04:59:24;;;;;;;22.88;3.92;;;5.40;99.90;;;;;;5092757;28;20074;-77
2022/02/01 05:01:49;;;;;;;18.40;3.40;;;5.40;99.90;;;;;;5091190;28;20540;-77
2022/02/01 05:04:19;;;;;;;15.10;3.25;;;5.50;99.90;;;;;;5076401;28;20064;-77
2022/02/01 05:06:53;;;;;;;23.77;4.43;;;5.60;99.90;;;;;;5071746;28;20104;-77
2022/02/01 05:09:20;;;;;;;15.25;3.53;;;5.50;99.90;;;;;;5074091;28;20032;-77
2022/02/01 05:11:46;;;;;;;25.05;4.43;;;5.50;99.90;;;;;;5075435;28;20452;-76
2022/02/01 05:14:15;;;;;;;18.92;3.45;;;5.50;99.90;;;;;;5075935;28;20031;-79
2022/02/01 05:21:55;;;;;;;15.70;3.17;;;5.50;99.90;;;;;;5075925;28;20065;-77
2022/02/01 05:24:24;;;;;;;19.13;4.13;;;5.50;99.90;;;;;;5075797;28;20111;-77
2022/02/01 05:26:49;;;;;;;16.65;4.53;;;5.50;99.90;;;;;;5075683;28;20464;-76
2022/02/01 05:29:18;;;;;;;17.70;3.80;;;5.50;99.90;;;;;;5075781;28;20099;-76
2022/02/01 05:31:44;;;;;;;21.02;4.10;;;5.50;99.90;;;;;;5075163;28;20062;-76
2022/02/01 05:34:09;;;;;;;34.70;5.60;;;5.60;99.90;;;;;;5075986;28;20021;-78
2022/02/01 05:36:35;;;;;;;18.58;3.70;;;5.60;99.90;;;;;;5081808;28;20043;-77
2022/02/01 05:39:21;;;;;;;20.23;4.57;;;5.50;99.90;;;;;;5095100;28;20396;-77
2022/02/01 05:41:50;;;;;;;19.05;3.90;;;5.60;99.90;;;;;;5092460;28;20491;-76
2022/02/01 05:44:15;;;;;;;22.80;4.13;;;5.60;99.90;;;;;;5095380;28;20042;-77
2022/02/01 05:46:41;;;;;;;18.40;4.20;;;5.50;99.90;;;;;;5093256;28;20110;-77
2022/02/01 05:49:07;;;;;;;19.52;4.57;;;5.50;99.90;;;;;;5095651;28;20029;-77
2022/02/01 05:51:34;;;;;;;16.42;4.28;;;5.60;99.90;;;;;;5095541;28;20451;-77
2022/02/01 05:54:00;;;;;;;17.27;4.95;;;5.60;99.90;;;;;;5095483;28;20031;-79
2022/02/01 05:56:26;;;;;;;20.88;4.55;;;5.60;99.90;;;;;;5094631;28;20099;-77
2022/02/01 05:58:52;;;;;;;29.73;4.30;;;5.70;99.90;;;;;;5095032;28;20145;-76
2022/02/01 06:01:20;;;;;;;24.02;4.13;;;5.60;99.90;;;;;;5088800;28;20024;-77
2022/02/01 06:03:47;;;;;;;29.60;4.38;;;5.60;99.90;;;;;;5085103;28;20029;-77
2022/02/01 06:06:13;;;;;;;17.95;4.10;;;5.60;99.90;;;;;;5073930;28;20102;-77
2022/02/01 06:08:38;;;;;;;23.45;4.38;;;5.70;99.90;;;;;;5085456;28;20448;-77
2022/02/01 06:11:04;;;;;;;26.08;5.82;;;5.70;99.90;;;;;;5095415;28;20478;-77
2022/02/01 06:13:30;;;;;;;25.38;5.72;;;5.70;99.90;;;;;;5095095;28;20028;-77
2022/02/01 06:15:55;;;;;;;23.45;6.22;;;5.60;99.90;;;;;;5094781;28;20016;-77
2022/02/01 06:18:21;;;;;;;21.20;5.40;;;5.70;99.90;;;;;;5094933;28;20495;-76
2022/02/01 06:20:47;;;;;;;24.92;5.18;;;5.60;99.90;;;;;;5093894;28;20031;-76
2022/02/01 06:23:17;;;;;;;26.33;5.30;;;5.60;99.90;;;;;;5094702;28;20028;-76
2022/02/01 06:25:48;;;;;;;21.83;5.13;;;5.60;99.90;;;;;;5093648;28;20023;-76
2022/02/01 06:28:16;;;;;;;21.98;6.10;;;5.60;99.90;;;;;;5094844;28;20020;-76
2022/02/01 06:30:42;;;;;;;20.35;5.85;;;5.50;99.90;;;;;;5094377;28;20020;-77
2022/02/01 06:33:08;;;;;;;26.25;6.38;;;5.50;99.90;;;;;;5092542;28;20108;-78
2022/02/01 06:35:34;;;;;;;22.70;7.72;;;5.50;99.90;;;;;;5074410;28;20392;-77
2022/02/01 06:37:59;;;;;;;24.80;7.55;;;5.50;99.90;;;;;;5080895;28;20024;-75
2022/02/01 06:40:25;;;;;;;27.98;7.65;;;5.50;99.90;;;;;;5093759;28;20036;-76
2022/02/01 06:42:52;;;;;;;32.00;8.25;;;5.50;99.90;;;;;;5094302;28;20064;-76
2022/02/01 06:45:17;;;;;;;31.63;8.38;;;5.60;99.90;;;;;;5093679;28;20361;-75
2022/02/01 06:47:43;;;;;;;37.58;9.15;;;5.60;99.90;;;;;;5083616;28;20494;-76
2022/02/01 06:50:10;;;;;;;30.45;8.45;;;5.50;99.90;;;;;;5074027;28;20466;-75
2022/02/01 06:52:35;;;;;;;36.70;9.07;;;5.60;99.90;;;;;;5073061;28;20380;-75
2022/02/01 06:55:03;;;;;;;44.42;9.25;;;5.60;99.90;;;;;;5073953;28;20024;-76
2022/02/01 06:57:38;;;;;;;35.22;10.38;;;5.70;99.90;;;;;;5080526;28;20436;-74
2022/02/01 07:00:06;;;;;;;37.83;10.20;;;5.70;99.90;;;;;;5092943;28;20468;-76
2022/02/01 07:02:32;;;;;;;36.63;10.32;;;5.70;99.90;;;;;;5088314;28;20043;-77
2022/02/01 07:04:57;;;;;;;36.80;9.55;;;5.80;99.90;;;;;;5093702;28;20489;-76
2022/02/01 07:07:23;;;;;;;41.30;11.13;;;5.70;99.90;;;;;;5094117;28;20039;-76
2022/02/01 07:09:49;;;;;;;26.98;9.70;;;5.80;99.90;;;;;;5092915;28;20418;-76
2022/02/01 07:12:14;;;;;;;32.03;11.55;;;5.80;99.90;;;;;;5094261;28;20028;-77
2022/02/01 07:14:40;;;;;;;34.38;11.48;;;5.80;99.90;;;;;;5093242;28;20052;-77
2022/02/01 07:17:05;;;;;;;36.20;11.30;;;5.80;99.90;;;;;;5092095;28;20033;-77
2022/02/01 07:19:31;;;;;;;35.45;11.50;;;5.80;99.90;;;;;;5093594;28;20043;-76
2022/02/01 07:21:57;;;;;;;36.88;13.07;;;5.90;99.90;;;;;;5084537;28;20088;-76
2022/02/01 07:24:28;;;;;;;42.10;12.55;;;5.90;99.90;;;;;;5081458;28;20024;-77
2022/02/01 07:26:58;;;;;;;35.30;13.07;;;5.90;99.90;;;;;;5081402;28;20380;-75
2022/02/01 07:29:25;;;;;;;35.53;13.23;;;5.90;99.90;;;;;;5079237;28;20523;-76
2022/02/01 07:31:51;;;;;;;35.28;14.10;;;5.90;99.90;;;;;;5072463;28;20032;-77
2022/02/01 07:34:17;;;;;;;34.97;13.27;;;5.90;99.90;;;;;;5073206;28;20025;-75
2022/02/01 07:36:43;;;;;;;42.00;14.07;;;6.00;99.90;;;;;;5073081;28;20025;-76
2022/02/01 07:39:10;;;;;;;45.30;14.15;;;6.00;99.90;;;;;;5083825;28;20024;-76
2022/02/01 07:41:37;;;;;;;38.70;13.80;;;6.00;99.90;;;;;;5092067;28;20067;-75
2022/02/01 07:44:03;;;;;;;39.63;15.48;;;6.00;99.90;;;;;;5092040;28;20160;-75
2022/02/01 07:46:30;;;;;;;35.58;13.55;;;6.00;99.90;;;;;;5084823;28;20052;-76
2022/02/01 07:48:56;;;;;;;37.63;13.38;;;6.00;99.90;;;;;;5083471;28;20533;-76
2022/02/01 07:51:22;;;;;;;44.20;16.92;;;6.00;99.90;;;;;;5092453;28;20024;-75
2022/02/01 07:53:47;;;;;;;37.95;15.35;;;6.10;99.90;;;;;;5092873;28;20103;-75
2022/02/01 07:56:13;;;;;;;41.97;15.70;;;6.10;99.90;;;;;;5091822;28;20379;-76
2022/02/01 07:58:39;;;;;;;39.13;15.98;;;6.10;99.90;;;;;;5091888;28;20020;-75
2022/02/01 08:01:05;;;;;;;51.08;17.63;;;6.00;99.90;;;;;;5087387;28;20490;-76
2022/02/01 08:03:31;;;;;;;44.25;17.48;;;6.00;99.90;;;;;;5089099;28;20107;-75
2022/02/01 08:05:58;;;;;;;48.53;20.25;;;6.10;99.90;;;;;;5092223;28;20047;-75
2022/02/01 08:08:24;;;;;;;46.47;18.08;;;6.10;99.90;;;;;;5077160;28;20052;-75
2022/02/01 08:10:53;;;;;;;42.33;16.77;;;6.20;99.90;;;;;;5072930;28;20118;-76
2022/02/01 08:14:27;;;;;;;44.10;18.42;;;6.20;99.90;;;;;;5071849;28;20024;-76
2022/02/01 08:16:40;;;;;;;39.65;17.55;;;6.10;99.90;;;;;;5083909;28;20028;-76
2022/02/01 08:19:14;;;;;;;41.17;18.85;;;6.20;99.90;;;;;;5092962;28;20357;-75
2022/02/01 08:21:45;;;;;;;39.20;17.00;;;6.30;99.90;;;;;;5093275;28;20025;-76
2022/02/01 08:24:11;;;;;;;35.95;16.27;;;6.30;99.90;;;;;;5073919;28;20262;-75
2022/02/01 08:26:37;;;;;;;36.45;17.63;;;6.20;99.90;;;;;;5081936;28;20020;-77
2022/02/01 08:29:04;;;;;;;33.88;16.63;;;6.30;99.90;;;;;;5092976;28;20537;-76
2022/02/01 08:31:30;;;;;;;37.22;18.25;;;6.30;99.90;;;;;;5092287;28;20432;-75
2022/02/01 08:33:55;;;;;;;32.03;17.15;;;6.30;99.90;;;;;;5074064;28;20028;-76
2022/02/01 08:36:21;;;;;;;28.77;16.02;;;6.30;99.90;;;;;;5071402;28;20035;-75
2022/02/01 08:38:47;;;;;;;34.13;16.50;;;6.30;99.90;;;;;;5072398;28;20036;-75
2022/02/01 08:41:12;;;;;;;30.60;18.08;;;6.30;99.90;;;;;;5071708;28;20025;-74
2022/02/01 08:43:38;;;;;;;36.28;16.65;;;6.20;99.90;;;;;;5073836;28;20427;-75
2022/02/01 08:46:03;;;;;;;37.35;18.98;;;6.20;99.90;;;;;;5076158;28;20035;-74
2022/02/01 08:48:29;;;;;;;36.17;18.15;;;6.30;99.90;;;;;;5075125;28;20082;-75
2022/02/01 08:51:00;;;;;;;36.95;19.08;;;6.40;99.90;;;;;;5076582;28;20477;-76
2022/02/01 08:53:32;;;;;;;36.88;20.80;;;6.30;99.90;;;;;;5076486;28;20025;-75
2022/02/01 08:58:27;;;;;;;39.40;19.48;;;6.40;99.90;;;;;;5083969;28;20024;-76
2022/02/01 09:00:53;;;;;;;39.78;20.30;;;6.40;99.90;;;;;;5096917;28;20028;-75
2022/02/01 09:03:19;;;;;;;35.53;19.60;;;6.50;99.90;;;;;;5095093;28;20024;-75
2022/02/01 09:05:48;;;;;;;42.60;21.17;;;6.50;99.90;;;;;;5096403;28;20038;-75
2022/02/01 09:08:14;;;;;;;35.30;19.17;;;6.60;99.90;;;;;;5094523;28;20472;-76
2022/02/01 09:10:40;;;;;;;39.78;21.40;;;6.50;99.90;;;;;;5096286;28;20028;-76
2022/02/01 09:13:05;;;;;;;33.97;18.40;;;6.50;99.90;;;;;;5095539;28;20023;-75
2022/02/01 09:15:31;;;;;;;32.20;18.17;;;6.50;99.90;;;;;;5095896;28;20024;-75
2022/02/01 09:17:58;;;;;;;34.83;18.85;;;6.50;99.90;;;;;;5095795;28;20038;-75
2022/02/01 09:20:24;;;;;;;33.13;17.73;;;6.60;99.90;;;;;;5096417;28;20065;-75
2022/02/01 09:22:50;;;;;;;31.05;18.73;;;6.50;99.90;;;;;;5096266;28;20557;-75
2022/02/01 09:25:17;;;;;;;29.98;17.60;;;6.60;99.90;;;;;;5095559;28;20095;-74
2022/02/01 09:27:44;;;;;;;27.10;16.17;;;6.70;99.90;;;;;;5095278;28;20043;-74
2022/02/01 09:30:11;;;;;;;33.38;18.80;;;6.70;99.90;;;;;;5116292;28;20024;-75
2022/02/01 09:32:36;;;;;;;28.75;17.60;;;6.70;99.90;;;;;;5087005;28;20027;-75
2022/02/01 09:35:02;;;;;;;32.88;18.05;;;6.70;99.90;;;;;;5075623;28;20025;-75
2022/02/01 09:37:28;;;;;;;28.92;16.38;;;6.70;99.90;;;;;;5077037;28;20023;-75
2022/02/01 09:39:54;;;;;;;30.17;16.58;;;6.80;99.90;;;;;;5095283;28;20544;-76
2022/02/01 09:42:24;;;;;;;28.58;17.10;;;6.80;99.90;;;;;;5094537;28;20480;-75
2022/02/01 09:44:52;;;;;;;24.63;14.50;;;6.80;99.90;;;;;;5092744;28;20052;-75
2022/02/01 09:47:29;;;;;;;24.35;14.95;;;6.80;99.90;;;;;;5075156;28;20044;-76
2022/02/01 09:49:54;;;;;;;23.52;13.90;;;6.80;99.90;;;;;;5095891;28;20020;-75
2022/02/01 09:52:21;;;;;;;28.00;14.63;;;6.90;99.90;;;;;;5090784;28;20526;-75
2022/02/01 09:54:51;;;;;;;27.00;13.75;;;6.90;99.90;;;;;;5074744;28;20032;-75
2022/02/01 09:57:20;;;;;;;21.35;12.75;;;6.90;99.90;;;;;;5074629;28;20032;-74
2022/02/01 09:59:56;;;;;;;22.63;13.82;;;6.90;99.90;;;;;;5075013;28;20040;-75
2022/02/01 10:02:37;;;;;;;26.13;13.98;;;7.00;99.90;;;;;;5086837;28;20077;-75
2022/02/01 10:05:05;;;;;;;19.52;11.55;;;7.00;99.90;;;;;;5076889;28;20017;-75
2022/02/01 10:07:31;;;;;;;21.38;11.88;;;7.00;99.90;;;;;;5080764;28;20023;-75
2022/02/01 10:10:00;;;;;;;21.20;12.77;;;7.10;99.90;;;;;;5083336;28;20865;-76
2022/02/01 10:12:31;;;;;;;16.73;11.30;;;7.10;99.90;;;;;;5084688;28;20028;-76
2022/02/01 10:15:11;;;;;;;21.67;11.40;;;7.10;99.90;;;;;;5082853;28;20029;-76
2022/02/01 10:17:45;;;;;;;23.20;12.35;;;7.20;99.90;;;;;;5086506;28;20024;-75
2022/02/01 10:20:12;;;;;;;17.92;11.05;;;7.20;99.90;;;;;;5086027;28;20093;-75
2022/02/01 10:22:38;;;;;;;19.55;11.10;;;7.20;99.90;;;;;;5080021;28;20059;-75
2022/02/01 10:25:18;;;;;;;22.58;12.07;;;7.20;99.90;;;;;;5077938;28;20031;-74
2022/02/01 10:27:53;;;;;;;21.15;12.85;;;7.30;99.90;;;;;;5074761;28;20111;-75
2022/02/01 10:30:21;;;;;;;20.20;11.60;;;7.40;99.90;;;;;;5077728;28;20020;-75
2022/02/01 10:37:58;;;;;;;17.90;10.40;;;7.40;99.90;;;;;;5084151;28;20046;-75
2022/02/01 10:40:23;;;;;;;16.65;9.95;;;7.50;99.90;;;;;;5084633;28;20063;-75
2022/02/01 10:43:01;;;;;;;18.30;10.38;;;7.50;99.90;;;;;;5084739;28;20048;-75
2022/02/01 10:45:27;;;;;;;20.70;10.75;;;7.50;99.90;;;;;;5076764;28;20024;-74
2022/02/01 10:47:53;;;;;;;15.82;11.10;;;7.40;99.90;;;;;;5076471;28;20021;-76
2022/02/01 10:50:20;;;;;;;19.50;10.75;;;7.50;99.90;;;;;;5094282;28;20028;-75
2022/02/01 10:52:50;;;;;;;19.15;12.40;;;7.60;99.90;;;;;;5093475;28;20044;-75
2022/02/01 10:55:19;;;;;;;16.40;10.55;;;7.70;99.90;;;;;;5093850;28;20062;-74
2022/02/01 10:57:45;;;;;;;14.50;9.95;;;7.70;99.90;;;;;;5094223;28;20073;-75
2022/02/01 11:00:13;;;;;;;15.38;9.27;;;7.60;99.90;;;;;;5093911;28;20036;-75
2022/02/01 11:02:45;;;;;;;13.40;8.82;;;7.70;99.90;;;;;;5093885;28;20047;-75
2022/02/01 11:05:13;;;;;;;18.55;10.35;;;7.60;99.90;;;;;;5071286;28;20028;-75
2022/02/01 11:07:39;;;;;;;14.70;10.13;;;7.60;99.90;;;;;;5083962;28;20021;-75
2022/02/01 11:10:08;;;;;;;16.50;9.90;;;7.60;99.90;;;;;;5093417;28;20028;-74
2022/02/01 11:12:36;;;;;;;19.70;11.23;;;7.60;99.90;;;;;;5093824;28;20019;-75
2022/02/01 11:15:02;;;;;;;16.45;10.30;;;7.60;99.90;;;;;;5082171;28;20027;-74
2022/02/01 11:17:39;;;;;;;20.40;11.85;;;7.70;99.90;;;;;;5084594;28;20122;-74
2022/02/01 11:20:05;;;;;;;18.00;11.52;;;7.70;99.90;;;;;;5081783;28;20469;-74
2022/02/01 11:22:36;;;;;;;25.00;14.27;;;7.70;99.90;;;;;;5085941;28;20024;-74
2022/02/01 11:25:25;;;;;;;23.73;14.13;;;7.80;99.90;;;;;;5083891;28;20024;-75
2022/02/01 11:28:20;;;;;;;18.38;12.63;;;7.80;99.90;;;;;;5089605;28;20579;-74
2022/02/01 11:30:51;;;;;;;17.70;12.90;;;7.80;99.90;;;;;;5085922;28;20108;-75
2022/02/01 11:33:17;;;;;;;27.65;15.00;;;7.70;99.90;;;;;;5080657;28;20027;-75
2022/02/01 11:35:43;;;;;;;19.20;12.88;;;7.90;99.90;;;;;;5078008;28;20485;-75
2022/02/01 11:38:17;;;;;;;21.98;13.88;;;7.80;99.90;;;;;;5084002;28;20573;-75
2022/02/01 11:40:46;;;;;;;21.20;14.30;;;7.90;99.90;;;;;;5083463;28;20037;-75
2022/02/01 11:43:13;;;;;;;19.92;13.13;;;7.90;99.90;;;;;;5082467;28;20047;-75
2022/02/01 11:45:55;;;;;;;19.13;12.38;;;7.90;99.90;;;;;;5082582;28;20027;-75
2022/02/01 11:48:26;;;;;;;20.27;12.73;;;7.90;99.90;;;;;;5087242;28;20411;-74
2022/02/01 11:51:09;;;;;;;19.77;13.32;;;8.00;99.90;;;;;;5092812;28;20274;-74
2022/02/01 11:53:36;;;;;;;20.70;12.93;;;7.90;99.90;;;;;;5073140;28;20032;-75
2022/02/01 11:56:04;;;;;;;22.25;13.95;;;8.10;99.90;;;;;;5071051;28;20099;-76
2022/02/01 11:58:33;;;;;;;19.55;13.98;;;8.10;99.90;;;;;;5070927;28;20032;-76
2022/02/01 12:01:01;;;;;;;22.23;14.38;;;8.10;99.90;;;;;;5075797;28;20103;-74
2022/02/01 12:03:34;;;;;;;20.08;14.20;;;8.10;99.90;;;;;;5086697;28;20016;-76
2022/02/01 12:06:04;;;;;;;22.30;14.00;;;8.10;99.90;;;;;;5093129;28;20016;-76
2022/02/01 12:08:34;;;;;;;22.55;14.45;;;8.20;99.90;;;;;;5091438;28;20020;-75
2022/02/01 12:11:03;;;;;;;26.67;16.42;;;8.20;99.90;;;;;;5071181;28;20154;-75
2022/02/01 12:13:31;;;;;;;21.40;14.88;;;8.20;99.90;;;;;;5085573;28;20031;-75
2022/02/01 12:15:59;;;;;;;20.02;13.85;;;8.30;99.90;;;;;;5093144;28;20048;-74
2022/02/01 12:18:54;;;;;;;22.63;13.07;;;8.30;99.90;;;;;;5093500;28;20023;-74
2022/02/01 12:21:35;;;;;;;20.58;13.57;;;8.30;99.90;;;;;;5095423;28;20059;-74
2022/02/01 12:24:03;;;;;;;22.65;13.75;;;8.40;99.90;;;;;;5096909;28;20020;-74
2022/02/01 12:26:34;;;;;;;23.08;13.65;;;8.40;99.90;;;;;;5096071;28;20052;-74
2022/02/01 12:29:03;;;;;;;20.85;12.98;;;8.40;99.90;;;;;;5097046;28;20036;-75
2022/02/01 12:31:30;;;;;;;17.30;11.52;;;8.40;99.90;;;;;;5095744;28;20016;-75
2022/02/01 12:33:58;;;;;;;18.15;10.98;;;8.40;99.90;;;;;;5088112;28;20107;-75
2022/02/01 12:36:28;;;;;;;19.27;12.65;;;8.40;99.90;;;;;;5088298;28;20031;-76
2022/02/01 12:39:24;;;;;;;18.17;11.75;;;8.40;99.90;;;;;;5095597;28;20081;-75
2022/02/01 12:42:01;;;;;;;23.98;13.93;;;8.40;99.90;;;;;;5094441;28;20028;-75
2022/02/01 12:46:59;;;;;;;21.23;13.43;;;8.50;99.90;;;;;;5095463;28;20031;-75
2022/02/01 12:49:40;;;;;;;26.70;15.13;;;8.50;99.90;;;;;;5076633;28;20029;-75
2022/02/01 12:52:29;;;;;;;26.25;15.10;;;8.50;99.90;;;;;;5075498;28;20028;-75
2022/02/01 12:55:11;;;;;;;32.78;17.08;;;8.50;99.90;;;;;;5076454;28;20357;-75
2022/02/01 12:57:39;;;;;;;37.95;19.15;;;8.50;99.90;;;;;;5081133;28;20024;-75
2022/02/01 13:00:16;;;;;;;40.65;21.48;;;8.60;99.90;;;;;;5093735;28;20512;-74
2022/02/01 13:02:43;;;;;;;48.45;23.58;;;8.60;99.90;;;;;;5084872;28;20025;-74
2022/02/01 13:05:12;;;;;;;46.17;25.35;;;8.60;99.90;;;;;;5082292;28;20038;-74
2022/02/01 13:16:15;;;;;;;56.97;27.27;;;8.70;99.90;;;;;;5074890;28;20387;-74
2022/02/01 13:21:17;;;;;;;63.05;31.23;;;8.90;99.90;;;;;;5094671;28;20381;-73
2022/02/01 13:23:57;;;;;;;58.80;29.15;;;8.90;99.90;;;;;;5095446;28;20032;-75
2022/02/01 13:26:28;;;;;;;57.38;27.90;;;8.90;99.90;;;;;;5095849;28;20032;-73
2022/02/01 13:29:00;;;;;;;56.70;26.77;;;8.90;99.90;;;;;;5095387;28;20036;-75
2022/02/01 13:31:29;;;;;;;63.17;26.33;;;8.90;99.90;;;;;;5095179;28;20016;-74
2022/02/01 13:34:00;;;;;;;51.92;27.77;;;8.90;99.90;;;;;;5088305;28;20096;-77
2022/02/01 13:36:27;;;;;;;40.75;22.52;;;8.90;99.90;;;;;;5075880;28;20024;-74
2022/02/01 13:38:57;;;;;;;48.65;22.48;;;8.90;99.90;;;;;;5082967;28;20516;-75
2022/02/01 13:41:25;;;;;;;39.88;20.77;;;9.00;99.90;;;;;;5085254;28;20047;-75
2022/02/01 13:43:53;;;;;;;43.35;20.58;;;9.00;99.90;;;;;;5093990;28;20067;-74
2022/02/01 13:46:33;;;;;;;37.30;19.73;;;9.00;99.90;;;;;;5088621;28;20035;-74
2022/02/01 13:49:05;;;;;;;36.90;18.52;;;9.10;99.90;;;;;;5073882;28;20069;-74
2022/02/01 13:51:31;;;;;;;38.38;17.98;;;9.10;99.90;;;;;;5073046;28;20044;-75
2022/02/01 13:54:05;;;;;;;41.28;18.67;;;9.20;99.90;;;;;;5073350;28;20054;-75
2022/02/01 13:56:43;;;;;;;31.98;16.48;;;9.20;99.90;;;;;;5074252;28;20103;-75
2022/02/01 13:59:12;;;;;;;29.95;14.70;;;9.20;99.90;;;;;;5091746;28;20028;-74
2022/02/01 14:01:41;;;;;;;31.02;14.00;;;9.20;99.90;;;;;;5093486;28;20361;-74
2022/02/01 14:04:28;;;;;;;29.85;12.35;;;9.20;99.90;;;;;;5084156;28;20017;-74
2022/02/01 14:07:14;;;;;;;24.40;11.07;;;9.30;99.90;;;;;;5074820;28;20028;-74
2022/02/01 14:10:05;;;;;;;31.40;11.15;;;9.30;99.90;;;;;;5072376;28;20043;-74
2022/02/01 14:12:43;;;;;;;29.70;10.85;;;9.30;99.90;;;;;;5073888;28;20035;-74
2022/02/01 14:24:08;;;;;;;20.15;8.02;;;9.50;99.90;;;;;;5094059;28;20043;-73
2022/02/01 14:28:55;;;;;;;16.08;8.32;;;9.50;99.90;;;;;;5085272;28;20032;-74
2022/02/01 14:34:17;;;;;;;21.95;8.30;;;9.60;99.90;;;;;;5090378;28;20120;-78
2022/02/01 14:36:47;;;;;;;14.98;8.43;;;9.60;99.90;;;;;;5078843;28;20028;-75
2022/02/01 14:44:48;;;;;;;18.65;7.90;;;9.70;99.90;;;;;;5082386;28;20059;-75